createdAt,value
2022-11-27T00:01:39.344Z,102444.91
2022-11-27T00:04:08.800Z,102462.66
2022-11-27T00:06:37.898Z,102460.72
2022-11-27T00:09:11.318Z,102457.97
2022-11-27T00:11:41.910Z,102452.31
2022-11-27T00:14:12.952Z,102460.09
2022-11-27T00:16:40.072Z,102455.56
2022-11-27T00:19:07.636Z,102466.06
2022-11-27T00:21:36.572Z,102460.94
2022-11-27T00:24:08.345Z,102468.38
2022-11-27T00:26:38.164Z,102458.06
2022-11-27T00:29:08.927Z,102469.41
2022-11-27T00:31:37.787Z,102466.19
2022-11-27T00:34:08.617Z,102461.56
2022-11-27T00:36:36.670Z,102463.34
2022-11-27T00:39:06.851Z,102452.84
2022-11-27T00:41:34.387Z,102453.78
2022-11-27T00:44:04.772Z,102459.78
2022-11-27T00:46:34.366Z,102460.31
2022-11-27T00:49:06.422Z,102459.69
2022-11-27T00:51:33.734Z,102462.56
2022-11-27T00:54:01.051Z,102465.00
2022-11-27T00:56:38.195Z,102457.31
2022-11-27T00:59:07.427Z,102462.50
2022-11-27T01:01:40.035Z,102455.72
2022-11-27T01:04:10.982Z,102453.16
2022-11-27T01:06:38.498Z,102450.69
2022-11-27T01:09:06.042Z,102458.81
2022-11-27T01:11:35.820Z,102450.66
2022-11-27T01:14:07.603Z,102452.72
2022-11-27T01:16:38.548Z,102449.81
2022-11-27T01:19:08.013Z,102453.16
2022-11-27T01:21:35.878Z,102457.13
2022-11-27T01:24:04.675Z,102463.97
2022-11-27T01:26:34.188Z,102459.16
2022-11-27T01:29:01.401Z,102460.06
2022-11-27T01:31:32.866Z,102464.06
2022-11-27T01:34:16.143Z,102465.94
2022-11-27T01:36:43.507Z,102469.53
2022-11-27T01:39:20.801Z,102466.84
2022-11-27T01:41:49.143Z,102460.00
2022-11-27T01:44:25.160Z,102462.63
2022-11-27T01:47:05.343Z,102467.81
2022-11-27T01:49:38.364Z,102459.16
2022-11-27T01:52:10.886Z,102450.91
2022-11-27T01:54:50.698Z,102455.38
2022-11-27T01:57:25.073Z,102455.09
2022-11-27T01:59:54.715Z,102462.41
2022-11-27T02:02:21.849Z,102459.47
2022-11-27T02:04:49.121Z,102471.56
2022-11-27T02:07:16.340Z,102461.47
2022-11-27T02:09:43.521Z,102465.81
2022-11-27T02:12:33.319Z,102462.22
2022-11-27T02:15:21.493Z,102463.09
2022-11-27T02:18:01.904Z,102459.63
2022-11-27T02:20:58.026Z,102455.78
2022-11-27T02:24:07.100Z,102455.75
2022-11-27T02:27:16.507Z,102467.59
2022-11-27T02:29:58.249Z,102460.84
2022-11-27T02:32:38.255Z,102464.25
2022-11-27T02:35:19.971Z,102459.84
2022-11-27T02:38:13.514Z,102461.16
2022-11-27T02:40:59.020Z,102469.53
2022-11-27T02:43:33.647Z,102463.56
2022-11-27T02:46:02.921Z,102470.31
2022-11-27T02:48:43.663Z,102477.75
2022-11-27T02:51:14.482Z,102470.13
2022-11-27T02:53:56.552Z,102476.66
2022-11-27T02:56:28.365Z,102473.09
2022-11-27T02:59:00.404Z,102469.53
2022-11-27T03:01:33.684Z,102463.78
2022-11-27T03:04:06.748Z,102469.78
2022-11-27T03:06:50.309Z,102463.78
2022-11-27T03:09:57.229Z,102453.69
2022-11-27T03:12:26.383Z,102468.06
2022-11-27T03:14:55.657Z,102458.19
2022-11-27T03:17:34.716Z,102448.34
2022-11-27T03:20:23.774Z,102452.88
2022-11-27T03:22:52.434Z,102461.06
2022-11-27T03:25:19.460Z,102459.69
2022-11-27T03:28:03.841Z,102451.69
2022-11-27T03:30:33.656Z,102456.94
2022-11-27T03:33:04.072Z,102470.19
2022-11-27T03:35:31.967Z,102476.66
2022-11-27T03:38:01.550Z,102473.03
2022-11-27T03:40:40.481Z,102477.69
2022-11-27T03:43:19.001Z,102484.34
2022-11-27T03:46:05.392Z,102479.97
2022-11-27T03:48:59.223Z,102483.50
2022-11-27T03:52:13.186Z,102486.53
2022-11-27T03:55:47.438Z,102481.88
2022-11-27T03:58:40.292Z,102475.16
2022-11-27T04:01:12.603Z,102468.94
2022-11-27T04:03:39.598Z,102475.41
2022-11-27T04:06:06.929Z,102483.97
2022-11-27T04:08:34.036Z,102464.88
2022-11-27T04:11:01.030Z,102465.75
2022-11-27T04:13:27.973Z,102468.81
2022-11-27T04:15:54.961Z,102467.72
2022-11-27T04:18:21.994Z,102466.72
2022-11-27T04:20:48.991Z,102473.75
2022-11-27T04:23:16.072Z,102465.28
2022-11-27T04:25:46.095Z,102470.66
2022-11-27T04:28:13.123Z,102467.41
2022-11-27T04:30:42.979Z,102455.34
2022-11-27T04:33:10.392Z,102458.25
2022-11-27T04:35:37.549Z,102445.50
2022-11-27T04:38:04.587Z,102447.53
2022-11-27T04:40:34.088Z,102449.59
2022-11-27T04:43:01.368Z,102447.84
2022-11-27T04:45:28.354Z,102442.28
2022-11-27T04:47:55.334Z,102438.59
2022-11-27T04:50:24.459Z,102443.06
2022-11-27T04:52:51.440Z,102439.63
2022-11-27T04:55:18.482Z,102424.84
2022-11-27T04:57:45.531Z,102430.53
2022-11-27T05:00:13.428Z,102431.47
2022-11-27T05:02:43.436Z,102429.34
2022-11-27T05:05:10.525Z,102425.75
2022-11-27T05:07:37.809Z,102431.38
2022-11-27T05:10:08.633Z,102424.84
2022-11-27T05:12:38.183Z,102424.84
2022-11-27T05:15:06.015Z,102421.97
2022-11-27T05:17:33.044Z,102410.53
2022-11-27T05:20:00.052Z,102409.50
2022-11-27T05:22:29.341Z,102413.94
2022-11-27T05:24:56.296Z,102410.66
2022-11-27T05:27:23.335Z,102407.06
2022-11-27T05:29:50.415Z,102402.28
2022-11-27T05:32:17.388Z,102410.03
2022-11-27T05:34:44.500Z,102406.31
2022-11-27T05:37:19.034Z,102411.50
2022-11-27T05:39:46.822Z,102403.94
2022-11-27T05:42:13.853Z,102402.59
2022-11-27T05:44:41.054Z,102411.34
2022-11-27T05:47:10.765Z,102409.44
2022-11-27T05:49:40.360Z,102411.03
2022-11-27T05:52:07.414Z,102410.09
2022-11-27T05:54:34.443Z,102407.97
2022-11-27T05:57:01.644Z,102413.47
2022-11-27T05:59:28.609Z,102412.50
2022-11-27T06:01:55.730Z,102417.31
2022-11-27T06:04:22.864Z,102415.56
2022-11-27T06:06:49.889Z,102423.09
2022-11-27T06:09:16.931Z,102427.22
2022-11-27T06:11:44.127Z,102426.44
2022-11-27T06:14:11.551Z,102430.59
2022-11-27T06:16:41.475Z,102425.16
2022-11-27T06:19:09.348Z,102428.34
2022-11-27T06:21:38.586Z,102427.91
2022-11-27T06:24:06.175Z,102429.78
2022-11-27T06:26:34.044Z,102427.25
2022-11-27T06:29:02.016Z,102416.47
2022-11-27T06:31:33.779Z,102424.03
2022-11-27T06:34:01.689Z,102424.50
2022-11-27T06:36:32.603Z,102424.13
2022-11-27T06:38:59.914Z,102428.72
2022-11-27T06:41:28.694Z,102431.03
2022-11-27T06:44:05.298Z,102424.94
2022-11-27T06:46:32.529Z,102430.56
2022-11-27T06:49:01.108Z,102426.25
2022-11-27T06:51:30.975Z,102432.19
2022-11-27T06:54:01.010Z,102442.88
2022-11-27T06:56:30.472Z,102430.59
2022-11-27T06:59:03.627Z,102432.38
2022-11-27T07:01:31.986Z,102427.50
2022-11-27T07:04:01.973Z,102439.06
2022-11-27T07:06:29.314Z,102447.94
2022-11-27T07:08:56.809Z,102439.88
2022-11-27T07:11:27.732Z,102442.66
2022-11-27T07:13:58.242Z,102449.91
2022-11-27T07:16:27.766Z,102445.81
2022-11-27T07:18:59.059Z,102448.84
2022-11-27T07:21:28.973Z,102454.47
2022-11-27T07:23:59.088Z,102457.88
2022-11-27T07:26:29.862Z,102453.19
2022-11-27T07:28:57.124Z,102454.06
2022-11-27T07:31:28.281Z,102463.31
2022-11-27T07:33:56.071Z,102468.13
2022-11-27T07:36:28.099Z,102464.44
2022-11-27T07:38:55.726Z,102460.34
2022-11-27T07:41:22.848Z,102459.38
2022-11-27T07:43:49.824Z,102462.31
2022-11-27T07:46:22.143Z,102464.97
2022-11-27T07:48:49.919Z,102456.41
2022-11-27T07:51:20.820Z,102453.59
2022-11-27T07:53:53.352Z,102454.44
2022-11-27T07:56:21.335Z,102451.84
2022-11-27T07:58:49.178Z,102440.47
2022-11-27T08:01:19.360Z,102450.84
2022-11-27T08:03:46.926Z,102451.94
2022-11-27T08:06:34.029Z,102463.28
2022-11-27T08:09:01.090Z,102456.22
2022-11-27T08:11:32.958Z,102461.47
2022-11-27T08:14:06.424Z,102457.91
2022-11-27T08:16:35.355Z,102461.53
2022-11-27T08:19:02.901Z,102463.31
2022-11-27T08:21:30.659Z,102458.66
2022-11-27T08:23:58.428Z,102452.06
2022-11-27T08:26:27.682Z,102461.16
2022-11-27T08:28:57.147Z,102454.59
2022-11-27T08:31:24.903Z,102458.38
2022-11-27T08:33:52.257Z,102452.91
2022-11-27T08:36:29.683Z,102457.09
2022-11-27T08:38:57.160Z,102457.16
2022-11-27T08:41:24.191Z,102462.06
2022-11-27T08:43:51.428Z,102459.44
2022-11-27T08:46:18.538Z,102456.19
2022-11-27T08:48:45.776Z,102455.03
2022-11-27T08:51:16.041Z,102455.03
2022-11-27T08:53:45.692Z,102462.31
2022-11-27T08:56:24.874Z,102455.50
2022-11-27T08:58:54.472Z,102456.28
2022-11-27T09:01:31.623Z,102462.31
2022-11-27T09:03:59.264Z,102467.25
2022-11-27T09:06:31.354Z,102464.41
2022-11-27T09:09:00.424Z,102478.28
2022-11-27T09:11:31.160Z,102480.41
2022-11-27T09:14:03.005Z,102475.88
2022-11-27T09:16:30.753Z,102481.13
2022-11-27T09:18:58.540Z,102479.00
2022-11-27T09:21:33.371Z,102474.69
2022-11-27T09:24:02.136Z,102469.66
2022-11-27T09:26:30.295Z,102467.50
2022-11-27T09:29:00.220Z,102483.06
2022-11-27T09:31:27.745Z,102472.63
2022-11-27T09:33:55.059Z,102468.56
2022-11-27T09:36:28.334Z,102472.16
2022-11-27T09:38:55.441Z,102455.38
2022-11-27T09:41:56.164Z,102464.72
2022-11-27T09:44:45.354Z,102466.44
2022-11-27T09:47:22.222Z,102467.75
2022-11-27T09:50:07.464Z,102459.47
2022-11-27T09:52:50.360Z,102458.53
2022-11-27T09:55:41.692Z,102462.22
2022-11-27T09:58:20.524Z,102464.88
2022-11-27T10:00:50.020Z,102455.78
2022-11-27T10:03:24.344Z,102441.84
2022-11-27T10:06:30.696Z,102448.06
2022-11-27T10:09:24.768Z,102448.66
2022-11-27T10:12:27.179Z,102440.72
2022-11-27T10:15:19.661Z,102440.41
2022-11-27T10:18:06.106Z,102437.56
2022-11-27T10:20:49.549Z,102431.97
2022-11-27T10:23:42.320Z,102431.06
2022-11-27T10:26:36.924Z,102426.19
2022-11-27T10:29:39.607Z,102421.16
2022-11-27T10:32:53.443Z,102419.50
2022-11-27T10:35:29.007Z,102408.88
2022-11-27T10:38:13.046Z,102413.88
2022-11-27T10:41:48.038Z,102413.97
2022-11-27T10:44:41.631Z,102403.28
2022-11-27T10:47:13.495Z,102411.31
2022-11-27T10:49:42.841Z,102405.97
2022-11-27T10:52:17.415Z,102406.56
2022-11-27T10:54:57.593Z,102403.41
2022-11-27T10:57:37.945Z,102400.69
2022-11-27T11:00:23.231Z,102398.38
2022-11-27T11:03:01.442Z,102385.97
2022-11-27T11:05:56.839Z,102388.00
2022-11-27T11:08:25.357Z,102380.34
2022-11-27T11:11:01.974Z,102385.19
2022-11-27T11:13:30.483Z,102371.19
2022-11-27T11:16:34.853Z,102367.34
2022-11-27T11:19:03.563Z,102371.41
2022-11-27T11:21:42.571Z,102374.78
2022-11-27T11:24:23.438Z,102378.75
2022-11-27T11:26:54.910Z,102381.81
2022-11-27T11:29:40.790Z,102368.44
2022-11-27T11:32:21.335Z,102371.84
2022-11-27T11:35:00.615Z,102378.63
2022-11-27T11:37:35.112Z,102380.41
2022-11-27T11:40:16.047Z,102380.25
2022-11-27T11:42:58.898Z,102375.94
2022-11-27T11:45:31.249Z,102372.75
2022-11-27T11:48:03.481Z,102368.59
2022-11-27T11:50:50.049Z,102370.53
2022-11-27T11:53:34.457Z,102369.72
2022-11-27T11:56:28.484Z,102366.63
2022-11-27T11:59:16.508Z,102369.00
2022-11-27T12:01:56.427Z,102367.94
2022-11-27T12:04:41.759Z,102367.16
2022-11-27T12:07:29.998Z,102363.69
2022-11-27T12:10:28.117Z,102357.28
2022-11-27T12:13:06.921Z,102358.88
2022-11-27T12:15:55.000Z,102358.47
2022-11-27T12:18:58.076Z,102355.97
2022-11-27T12:22:06.477Z,102355.56
2022-11-27T12:25:04.659Z,102347.13
2022-11-27T12:28:11.725Z,102345.09
2022-11-27T12:31:08.577Z,102355.50
2022-11-27T12:34:05.903Z,102354.22
2022-11-27T12:36:57.518Z,102351.97
2022-11-27T12:39:33.945Z,102348.75
2022-11-27T12:42:29.696Z,102343.69
2022-11-27T12:45:36.580Z,102342.31
2022-11-27T12:48:25.616Z,102344.66
2022-11-27T12:51:00.593Z,102345.25
2022-11-27T12:53:45.543Z,102343.09
2022-11-27T12:56:40.403Z,102338.28
2022-11-27T12:59:27.300Z,102343.88
2022-11-27T13:02:28.655Z,102341.28
2022-11-27T13:05:12.181Z,102346.84
2022-11-27T13:08:01.208Z,102339.63
2022-11-27T13:10:50.642Z,102351.34
2022-11-27T13:13:59.588Z,102347.53
2022-11-27T13:17:09.734Z,102346.84
2022-11-27T13:19:44.261Z,102343.78
2022-11-27T13:22:18.071Z,102347.63
2022-11-27T13:24:45.161Z,102346.34
2022-11-27T13:27:23.894Z,102348.88
2022-11-27T13:30:07.980Z,102344.13
2022-11-27T13:32:46.820Z,102343.44
2022-11-27T13:35:43.960Z,102336.59
2022-11-27T13:38:26.298Z,102338.88
2022-11-27T13:40:59.515Z,102342.72
2022-11-27T13:43:48.340Z,102342.09
2022-11-27T13:46:25.080Z,102344.19
2022-11-27T13:48:58.204Z,102352.69
2022-11-27T13:51:34.053Z,102345.75
2022-11-27T13:54:17.148Z,102349.53
2022-11-27T13:56:44.467Z,102343.00
2022-11-27T13:59:14.575Z,102343.69
2022-11-27T14:02:04.724Z,102343.91
2022-11-27T14:04:33.828Z,102336.50
2022-11-27T14:07:13.728Z,102337.50
2022-11-27T14:09:51.519Z,102334.22
2022-11-27T14:12:31.744Z,102336.28
2022-11-27T14:15:12.422Z,102335.97
2022-11-27T14:17:45.544Z,102338.41
2022-11-27T14:20:20.427Z,102337.38
2022-11-27T14:23:17.536Z,102326.16
2022-11-27T14:25:44.527Z,102321.75
2022-11-27T14:28:27.893Z,102319.53
2022-11-27T14:31:01.625Z,102315.31
2022-11-27T14:33:47.360Z,102320.09
2022-11-27T14:36:31.833Z,102314.13
2022-11-27T14:39:05.118Z,102306.00
2022-11-27T14:41:32.379Z,102301.84
2022-11-27T14:44:04.282Z,102306.13
2022-11-27T14:46:37.901Z,102302.66
2022-11-27T14:49:04.943Z,102303.97
2022-11-27T14:51:35.656Z,102299.75
2022-11-27T14:54:13.693Z,102297.97
2022-11-27T14:56:43.380Z,102304.16
2022-11-27T14:59:20.606Z,102298.88
2022-11-27T15:02:03.235Z,102293.03
2022-11-27T15:04:36.895Z,102299.66
2022-11-27T15:07:17.865Z,102291.88
2022-11-27T15:09:49.998Z,102296.22
2022-11-27T15:12:29.041Z,102283.91
2022-11-27T15:15:08.032Z,102293.94
2022-11-27T15:17:39.618Z,102284.94
2022-11-27T15:20:24.018Z,102290.00
2022-11-27T15:23:00.051Z,102291.72
2022-11-27T15:25:43.472Z,102291.47
2022-11-27T15:28:37.528Z,102287.72
2022-11-27T15:31:28.301Z,102293.00
2022-11-27T15:34:15.965Z,102293.50
2022-11-27T15:36:43.505Z,102288.06
2022-11-27T15:39:27.420Z,102288.91
2022-11-27T15:42:08.530Z,102289.69
2022-11-27T15:44:35.544Z,102284.75
2022-11-27T15:47:04.757Z,102287.56
2022-11-27T15:49:32.112Z,102277.44
2022-11-27T15:52:02.118Z,102282.63
2022-11-27T15:54:31.532Z,102282.91
2022-11-27T15:57:01.141Z,102276.84
2022-11-27T15:59:29.405Z,102284.69
2022-11-27T16:01:57.985Z,102280.47
2022-11-27T16:04:25.154Z,102269.41
2022-11-27T16:06:52.269Z,102275.88
2022-11-27T16:09:19.279Z,102275.81
2022-11-27T16:11:46.776Z,102269.38
2022-11-27T16:14:13.948Z,102272.00
2022-11-27T16:16:41.064Z,102274.16
2022-11-27T16:19:08.275Z,102263.50
2022-11-27T16:21:35.798Z,102261.63
2022-11-27T16:24:06.787Z,102257.41
2022-11-27T16:26:34.521Z,102260.28
2022-11-27T16:29:01.571Z,102257.66
2022-11-27T16:31:31.133Z,102258.16
2022-11-27T16:34:02.029Z,102262.91
2022-11-27T16:36:29.221Z,102253.81
2022-11-27T16:38:56.627Z,102258.59
2022-11-27T16:41:24.493Z,102260.66
2022-11-27T16:43:55.720Z,102264.66
2022-11-27T16:46:28.477Z,102262.63
2022-11-27T16:48:59.121Z,102267.56
2022-11-27T16:51:34.002Z,102268.03
2022-11-27T16:54:05.311Z,102269.94
2022-11-27T16:56:33.831Z,102256.06
2022-11-27T16:59:03.429Z,102261.38
2022-11-27T17:01:36.228Z,102256.34
2022-11-27T17:04:07.234Z,102264.84
2022-11-27T17:06:37.999Z,102264.41
2022-11-27T17:09:08.095Z,102267.97
2022-11-27T17:11:37.569Z,102259.91
2022-11-27T17:14:09.131Z,102249.38
2022-11-27T17:16:38.872Z,102249.28
2022-11-27T17:19:06.169Z,102249.16
2022-11-27T17:21:35.283Z,102253.47
2022-11-27T17:24:15.138Z,102249.06
2022-11-27T17:26:43.602Z,102240.03
2022-11-27T17:29:12.859Z,102236.13
2022-11-27T17:31:44.385Z,102236.50
2022-11-27T17:34:14.287Z,102233.22
2022-11-27T17:36:43.125Z,102226.06
2022-11-27T17:39:14.452Z,102215.63
2022-11-27T17:41:44.113Z,102218.94
2022-11-27T17:44:11.883Z,102214.19
2022-11-27T17:46:40.099Z,102216.94
2022-11-27T17:49:08.519Z,102217.31
2022-11-27T17:51:36.738Z,102213.19
2022-11-27T17:54:06.095Z,102203.81
2022-11-27T17:56:35.977Z,102209.59
2022-11-27T17:59:04.222Z,102213.00
2022-11-27T18:01:31.464Z,102216.22
2022-11-27T18:04:00.994Z,102203.13
2022-11-27T18:06:28.183Z,102204.81
2022-11-27T18:08:57.439Z,102203.38
2022-11-27T18:11:30.841Z,102197.78
2022-11-27T18:13:58.328Z,102193.59
2022-11-27T18:16:30.312Z,102189.75
2022-11-27T18:19:01.468Z,102191.28
2022-11-27T18:21:28.835Z,102194.88
2022-11-27T18:29:30.433Z,102192.38
2022-11-27T18:31:57.758Z,102189.03
2022-11-27T18:34:27.315Z,102184.03
2022-11-27T18:36:57.357Z,102184.25
2022-11-27T18:39:27.443Z,102185.22
2022-11-27T18:41:54.471Z,102190.94
2022-11-27T18:44:24.237Z,102193.09
2022-11-27T18:46:51.411Z,102193.56
2022-11-27T18:49:18.739Z,102193.59
2022-11-27T18:51:45.774Z,102199.34
2022-11-27T18:54:13.044Z,102205.78
2022-11-27T18:56:40.963Z,102200.66
2022-11-27T18:59:08.062Z,102208.06
2022-11-27T19:01:42.026Z,102207.00
2022-11-27T19:04:15.143Z,102210.56
2022-11-27T19:06:42.422Z,102209.13
2022-11-27T19:09:11.489Z,102215.34
2022-11-27T19:11:39.851Z,102211.25
2022-11-27T19:14:07.829Z,102205.88
2022-11-27T19:16:45.533Z,102210.81
2022-11-27T19:19:52.842Z,102212.59
2022-11-27T19:22:03.206Z,102209.94
2022-11-27T19:24:32.353Z,102215.09
2022-11-27T19:26:59.391Z,102218.69
2022-11-27T19:29:26.418Z,102221.44
2022-11-27T19:31:55.299Z,102211.13
2022-11-27T19:34:22.912Z,102206.50
2022-11-27T19:36:49.912Z,102202.66
2022-11-27T19:39:16.959Z,102200.88
2022-11-27T19:41:44.470Z,102196.72
2022-11-27T19:44:13.493Z,102195.88
2022-11-27T19:46:41.325Z,102195.75
2022-11-27T19:49:15.095Z,102196.59
2022-11-27T19:51:42.180Z,102189.78
2022-11-27T19:54:12.749Z,102189.75
2022-11-27T19:56:40.795Z,102182.75
2022-11-27T19:59:09.217Z,102170.66
2022-11-27T20:01:37.919Z,102181.97
2022-11-27T20:04:06.632Z,102177.03
2022-11-27T20:06:36.167Z,102176.66
2022-11-27T20:09:07.635Z,102179.47
2022-11-27T20:11:38.218Z,102180.09
2022-11-27T20:14:07.106Z,102175.53
2022-11-27T20:16:36.121Z,102186.41
2022-11-27T20:19:06.051Z,102174.44
2022-11-27T20:21:33.336Z,102170.06
2022-11-27T20:24:01.595Z,102161.47
2022-11-27T20:26:30.501Z,102161.66
2022-11-27T20:28:58.453Z,102166.81
2022-11-27T20:31:32.731Z,102163.97
2022-11-27T20:34:04.115Z,102163.00
2022-11-27T20:36:34.064Z,102165.41
2022-11-27T20:39:01.902Z,102165.28
2022-11-27T20:41:29.651Z,102159.94
2022-11-27T20:44:00.504Z,102166.09
2022-11-27T20:46:28.495Z,102157.50
2022-11-27T20:48:56.658Z,102163.22
2022-11-27T20:51:30.934Z,102162.69
2022-11-27T20:54:00.287Z,102154.66
2022-11-27T20:56:31.462Z,102149.84
2022-11-27T20:58:58.939Z,102155.13
2022-11-27T21:01:35.431Z,102145.56
2022-11-27T21:04:09.595Z,102145.09
2022-11-27T21:06:43.770Z,102144.13
2022-11-27T21:09:13.904Z,102141.72
2022-11-27T21:11:43.555Z,102140.66
2022-11-27T21:14:13.383Z,102132.22
2022-11-27T21:16:48.607Z,102128.13
2022-11-27T21:19:24.436Z,102134.06
2022-11-27T21:21:53.020Z,102128.50
2022-11-27T21:24:23.974Z,102130.19
2022-11-27T21:26:51.303Z,102135.44
2022-11-27T21:29:18.595Z,102125.97
2022-11-27T21:31:47.368Z,102127.56
2022-11-27T21:34:17.717Z,102131.13
2022-11-27T21:36:44.775Z,102130.44
2022-11-27T21:39:20.386Z,102129.06
2022-11-27T21:41:50.279Z,102139.38
2022-11-27T21:44:18.566Z,102133.88
2022-11-27T21:46:46.623Z,102134.22
2022-11-27T21:49:23.968Z,102139.34
2022-11-27T21:51:56.608Z,102143.03
2022-11-27T21:54:26.665Z,102138.31
2022-11-27T21:56:56.222Z,102138.03
2022-11-27T21:59:23.317Z,102135.72
2022-11-27T22:01:50.683Z,102135.91
2022-11-27T22:04:18.193Z,102124.53
2022-11-27T22:06:45.643Z,102128.59
2022-11-27T22:09:15.627Z,102133.38
2022-11-27T22:11:45.210Z,102123.09
2022-11-27T22:14:13.546Z,102125.72
2022-11-27T22:16:45.883Z,102130.34
2022-11-27T22:19:14.828Z,102127.63
2022-11-27T22:21:42.506Z,102133.41
2022-11-27T22:24:16.513Z,102123.00
2022-11-27T22:26:45.836Z,102122.75
2022-11-27T22:29:18.565Z,102115.59
2022-11-27T22:31:46.531Z,102118.34
2022-11-27T22:34:13.537Z,102114.50
2022-11-27T22:36:40.582Z,102114.06
2022-11-27T22:39:09.128Z,102113.06
2022-11-27T22:41:38.933Z,102099.44
2022-11-27T22:44:11.635Z,102102.66
2022-11-27T22:46:43.037Z,102105.63
2022-11-27T22:49:13.818Z,102106.16
2022-11-27T22:51:41.636Z,102103.06
2022-11-27T22:54:13.712Z,102096.34
2022-11-27T22:56:45.525Z,102095.88
2022-11-27T23:02:00.468Z,102097.56
2022-11-27T23:04:27.916Z,102092.44
2022-11-27T23:06:55.009Z,102100.94
2022-11-27T23:09:22.388Z,102093.50
2022-11-27T23:11:49.934Z,102097.06
2022-11-27T23:14:17.373Z,102097.06
2022-11-27T23:16:44.579Z,102090.88
2022-11-27T23:19:12.433Z,102100.63
2022-11-27T23:21:40.063Z,102095.59
2022-11-27T23:24:11.778Z,102091.81
2022-11-27T23:26:38.949Z,102098.25
2022-11-27T23:29:06.023Z,102097.25
2022-11-27T23:31:36.773Z,102102.63
2022-11-27T23:34:09.639Z,102098.53
2022-11-27T23:36:37.352Z,102097.31
2022-11-27T23:39:08.260Z,102102.47
2022-11-27T23:41:35.531Z,102099.13
2022-11-27T23:44:02.543Z,102102.25
2022-11-27T23:46:32.240Z,102088.38
2022-11-27T23:49:00.312Z,102090.63
2022-11-27T23:51:32.708Z,102098.25
2022-11-27T23:54:00.448Z,102102.00
2022-11-27T23:56:32.505Z,102099.03
2022-11-27T23:59:00.171Z,102105.41
